Time;durP1;ratioP1;P1;durP2;ratioP2;P2;SDS_P1;SDS_P2;PMS_P1;PMS_P2;Temp;Humidity;BMP_temperature;BMP_pressure;BME280_temperature;BME280_humidity;BME280_pressure;Samples;Min_cycle;Max_cycle;Signal;HPM_P1;HPM_P2
2022/10/15 04:01:49;;;;;;;1.67;0.93;;;;;;;;;;5370453;22;20528;-84
2022/10/15 04:04:15;;;;;;;1.70;0.82;;;;;;;;;;5052255;28;20416;-85
2022/10/15 04:06:41;;;;;;;0.85;0.85;;;;;;;;;;5051171;28;20389;-84
2022/10/15 04:09:09;;;;;;;0.90;0.90;;;;;;;;;;5049055;28;20508;-85
2022/10/15 04:11:35;;;;;;;2.05;0.93;;;;;;;;;;5048186;28;20432;-85
2022/10/15 04:14:01;;;;;;;1.95;1.05;;;;;;;;;;5030163;28;20407;-85
2022/10/15 04:16:27;;;;;;;1.55;0.90;;;;;;;;;;5031114;28;20381;-84
2022/10/15 04:18:53;;;;;;;1.50;1.00;;;;;;;;;;5031649;28;20888;-84
2022/10/15 04:21:20;;;;;;;1.33;1.00;;;;;;;;;;5031071;28;20414;-84
2022/10/15 04:23:46;;;;;;;1.20;1.00;;;;;;;;;;5032354;28;20421;-84
2022/10/15 04:26:12;;;;;;;3.10;1.00;;;;;;;;;;5032833;28;20413;-85
2022/10/15 04:28:38;;;;;;;1.60;1.05;;;;;;;;;;5032901;28;20405;-84
2022/10/15 04:31:04;;;;;;;2.70;1.08;;;;;;;;;;5032198;28;20371;-84
2022/10/15 04:33:30;;;;;;;1.10;1.00;;;;;;;;;;5032496;28;20387;-84
2022/10/15 04:36:04;;;;;;;1.77;1.10;;;;;;;;;;5032574;28;20448;-84
2022/10/15 04:38:30;;;;;;;1.05;0.90;;;;;;;;;;5024746;28;20809;-84
2022/10/15 04:41:06;;;;;;;1.08;0.80;;;;;;;;;;5031998;28;20462;-84
2022/10/15 04:43:33;;;;;;;1.27;1.10;;;;;;;;;;5032392;28;20410;-85
2022/10/15 04:46:00;;;;;;;2.28;0.95;;;;;;;;;;5032736;28;20497;-84
2022/10/15 04:48:29;;;;;;;1.50;0.95;;;;;;;;;;5032364;28;20383;-85
2022/10/15 04:50:56;;;;;;;2.47;0.95;;;;;;;;;;5031924;28;20394;-84
2022/10/15 04:53:22;;;;;;;1.15;1.00;;;;;;;;;;5032340;28;20382;-84
2022/10/15 04:55:48;;;;;;;0.90;0.90;;;;;;;;;;5032132;28;20418;-85
2022/10/15 04:58:14;;;;;;;0.98;0.80;;;;;;;;;;5032411;28;20426;-85
2022/10/15 05:00:40;;;;;;;1.42;1.00;;;;;;;;;;5032119;28;20399;-85
2022/10/15 05:03:06;;;;;;;0.80;0.73;;;;;;;;;;5031973;28;20887;-85
2022/10/15 05:05:32;;;;;;;3.22;1.80;;;;;;;;;;5032192;28;20446;-85
2022/10/15 05:07:59;;;;;;;2.65;1.40;;;;;;;;;;5032315;28;20425;-85
2022/10/15 05:10:25;;;;;;;0.90;0.90;;;;;;;;;;5032181;28;20740;-84
2022/10/15 05:12:51;;;;;;;1.10;1.00;;;;;;;;;;5031816;28;20465;-85
2022/10/15 05:15:17;;;;;;;3.05;2.75;;;;;;;;;;5029394;28;20433;-84
2022/10/15 05:17:43;;;;;;;4.90;3.47;;;;;;;;;;5013038;28;20388;-84
2022/10/15 05:20:09;;;;;;;1.95;1.73;;;;;;;;;;5030619;28;20394;-86
2022/10/15 05:22:35;;;;;;;1.50;0.68;;;;;;;;;;5031589;28;20492;-84
2022/10/15 05:25:01;;;;;;;1.60;1.10;;;;;;;;;;5032015;28;20994;-85
2022/10/15 05:27:27;;;;;;;0.80;0.80;;;;;;;;;;5034629;28;20382;-84
2022/10/15 05:29:53;;;;;;;2.92;0.50;;;;;;;;;;5032175;28;20887;-84
2022/10/15 05:32:19;;;;;;;0.50;0.50;;;;;;;;;;5031542;28;20379;-83
2022/10/15 05:34:45;;;;;;;1.20;0.60;;;;;;;;;;5032074;28;20791;-84
2022/10/15 05:37:11;;;;;;;1.40;0.70;;;;;;;;;;5031901;28;20385;-84
2022/10/15 05:39:37;;;;;;;1.30;0.95;;;;;;;;;;5032387;28;20863;-84
2022/10/15 05:42:03;;;;;;;1.03;0.90;;;;;;;;;;5029672;28;20391;-85
2022/10/15 05:44:29;;;;;;;1.50;1.08;;;;;;;;;;5032282;28;20885;-84
2022/10/15 05:46:55;;;;;;;2.63;1.27;;;;;;;;;;5031880;28;20407;-84
2022/10/15 05:49:21;;;;;;;1.50;1.13;;;;;;;;;;5032193;28;20386;-84
2022/10/15 05:51:47;;;;;;;1.80;1.10;;;;;;;;;;5031448;28;20879;-84
2022/10/15 05:54:13;;;;;;;0.90;0.75;;;;;;;;;;5030714;28;20395;-86
2022/10/15 05:56:39;;;;;;;1.27;0.60;;;;;;;;;;5029515;28;20788;-84
2022/10/15 05:59:05;;;;;;;1.27;0.55;;;;;;;;;;5030393;28;20395;-84
2022/10/15 06:01:31;;;;;;;1.40;0.50;;;;;;;;;;5033656;28;20434;-84
2022/10/15 06:03:57;;;;;;;1.13;0.43;;;;;;;;;;5034307;28;20423;-85
2022/10/15 06:06:25;;;;;;;0.93;0.50;;;;;;;;;;5033944;28;20872;-83
2022/10/15 06:08:51;;;;;;;1.17;0.60;;;;;;;;;;5034755;28;20378;-84
2022/10/15 06:11:17;;;;;;;1.23;0.80;;;;;;;;;;5034076;28;20748;-84
2022/10/15 06:13:44;;;;;;;1.20;0.60;;;;;;;;;;5035280;28;20409;-84
2022/10/15 06:16:10;;;;;;;1.33;1.00;;;;;;;;;;5034791;28;20387;-84
2022/10/15 06:18:37;;;;;;;1.20;0.88;;;;;;;;;;5034783;28;20403;-84
2022/10/15 06:21:04;;;;;;;2.20;0.95;;;;;;;;;;5033085;28;20787;-85
2022/10/15 06:23:30;;;;;;;2.30;0.93;;;;;;;;;;5035298;28;20394;-86
2022/10/15 06:25:56;;;;;;;0.98;0.77;;;;;;;;;;5034750;28;20797;-85
2022/10/15 06:28:22;;;;;;;3.13;0.67;;;;;;;;;;5034685;28;20458;-85
2022/10/15 06:30:48;;;;;;;1.80;0.50;;;;;;;;;;5034595;28;20395;-84
2022/10/15 06:33:15;;;;;;;1.20;0.60;;;;;;;;;;5034890;28;20856;-86
2022/10/15 06:35:41;;;;;;;1.45;0.55;;;;;;;;;;5040053;28;20459;-85
2022/10/15 06:38:07;;;;;;;0.63;0.40;;;;;;;;;;5036635;28;20373;-83
2022/10/15 06:40:33;;;;;;;1.57;0.40;;;;;;;;;;5034019;28;20433;-84
2022/10/15 06:43:03;;;;;;;0.77;0.50;;;;;;;;;;5034665;28;20375;-83
2022/10/15 06:45:29;;;;;;;1.30;0.50;;;;;;;;;;5034330;28;20411;-83
2022/10/15 06:47:55;;;;;;;0.90;0.50;;;;;;;;;;5034151;28;20788;-82
2022/10/15 06:50:21;;;;;;;1.80;0.63;;;;;;;;;;5034402;28;20388;-83
2022/10/15 06:52:47;;;;;;;0.80;0.50;;;;;;;;;;5032385;28;20884;-82
2022/10/15 06:55:13;;;;;;;1.95;0.70;;;;;;;;;;5032483;28;20386;-82
2022/10/15 06:57:39;;;;;;;1.63;0.55;;;;;;;;;;5033353;28;20818;-82
2022/10/15 07:00:05;;;;;;;1.03;0.60;;;;;;;;;;5029631;28;20939;-82
2022/10/15 07:02:31;;;;;;;1.88;0.75;;;;;;;;;;5031913;28;20395;-83
2022/10/15 07:04:57;;;;;;;1.00;0.65;;;;;;;;;;5033466;28;20429;-85
2022/10/15 07:07:23;;;;;;;1.42;0.70;;;;;;;;;;5031808;28;20387;-85
2022/10/15 07:09:52;;;;;;;2.00;0.70;;;;;;;;;;5030246;28;20391;-84
2022/10/15 07:12:20;;;;;;;1.52;0.90;;;;;;;;;;5031869;28;20387;-84
2022/10/15 07:14:46;;;;;;;2.03;0.87;;;;;;;;;;5033449;28;20899;-85
2022/10/15 07:17:12;;;;;;;1.63;1.02;;;;;;;;;;5033158;28;20466;-83
2022/10/15 07:19:38;;;;;;;3.38;1.17;;;;;;;;;;5033557;28;20383;-84
2022/10/15 07:22:04;;;;;;;2.28;0.90;;;;;;;;;;5033191;28;20383;-83
2022/10/15 07:24:30;;;;;;;1.07;0.60;;;;;;;;;;5038464;28;20839;-84
2022/10/15 07:26:56;;;;;;;1.75;0.80;;;;;;;;;;5037615;28;20402;-83
2022/10/15 07:29:22;;;;;;;1.40;0.80;;;;;;;;;;5029703;28;20439;-83
2022/10/15 07:31:48;;;;;;;2.03;1.10;;;;;;;;;;5030704;28;20412;-83
2022/10/15 07:34:14;;;;;;;4.13;1.58;;;;;;;;;;5032434;28;20383;-84
2022/10/15 07:36:40;;;;;;;2.33;0.65;;;;;;;;;;5026394;28;20395;-85
2022/10/15 07:39:06;;;;;;;0.90;0.50;;;;;;;;;;5030616;28;20895;-85
2022/10/15 07:41:32;;;;;;;0.88;0.60;;;;;;;;;;5032926;28;20387;-85
2022/10/15 07:43:58;;;;;;;1.38;0.70;;;;;;;;;;5031519;28;20839;-86
2022/10/15 07:46:24;;;;;;;2.95;0.90;;;;;;;;;;5030826;28;20426;-85
2022/10/15 07:48:50;;;;;;;1.65;0.70;;;;;;;;;;5032191;28;20368;-86
2022/10/15 07:51:16;;;;;;;3.30;0.80;;;;;;;;;;5029512;28;20466;-84
2022/10/15 07:53:43;;;;;;;1.52;0.80;;;;;;;;;;5033224;28;20789;-83
2022/10/15 07:56:11;;;;;;;2.20;0.60;;;;;;;;;;5033366;28;20398;-83
2022/10/15 07:58:37;;;;;;;1.98;0.65;;;;;;;;;;5033445;28;20394;-82
2022/10/15 08:01:07;;;;;;;0.93;0.63;;;;;;;;;;5032602;28;20484;-82
2022/10/15 08:03:34;;;;;;;1.52;0.70;;;;;;;;;;5035149;28;20409;-82
2022/10/15 08:06:00;;;;;;;2.00;0.70;;;;;;;;;;5035388;28;20383;-83
2022/10/15 08:08:26;;;;;;;1.47;0.80;;;;;;;;;;5033210;28;20379;-84
2022/10/15 08:10:53;;;;;;;2.10;0.77;;;;;;;;;;5032093;28;20959;-84
2022/10/15 08:13:20;;;;;;;1.60;0.60;;;;;;;;;;5038034;28;20406;-83
2022/10/15 08:15:46;;;;;;;1.35;0.70;;;;;;;;;;5025666;28;20480;-84
2022/10/15 08:18:12;;;;;;;1.40;0.80;;;;;;;;;;5032874;28;20875;-85
2022/10/15 08:20:39;;;;;;;2.75;0.60;;;;;;;;;;5031208;28;20394;-84
2022/10/15 08:23:05;;;;;;;2.58;0.70;;;;;;;;;;5032477;28;20379;-85
2022/10/15 08:25:32;;;;;;;1.73;0.68;;;;;;;;;;5032456;28;20435;-84
2022/10/15 08:27:58;;;;;;;3.70;0.60;;;;;;;;;;5031363;28;20753;-84
2022/10/15 08:30:25;;;;;;;1.27;0.50;;;;;;;;;;5032249;28;20845;-84
2022/10/15 08:32:51;;;;;;;1.02;0.50;;;;;;;;;;5029991;28;20729;-84
2022/10/15 08:35:17;;;;;;;0.60;0.53;;;;;;;;;;5032298;28;20390;-84
2022/10/15 08:37:43;;;;;;;1.20;0.70;;;;;;;;;;5032576;28;20465;-84
2022/10/15 08:40:09;;;;;;;1.65;0.60;;;;;;;;;;5032107;28;20864;-84
2022/10/15 08:42:40;;;;;;;2.00;0.65;;;;;;;;;;5034529;28;20383;-83
2022/10/15 08:45:15;;;;;;;1.60;0.50;;;;;;;;;;5031099;28;20770;-83
2022/10/15 08:47:47;;;;;;;1.65;0.50;;;;;;;;;;5030868;28;20407;-84
2022/10/15 08:50:32;;;;;;;1.15;0.50;;;;;;;;;;5034572;28;20867;-82
2022/10/15 08:52:58;;;;;;;1.55;0.70;;;;;;;;;;5043334;28;20871;-84
2022/10/15 08:55:29;;;;;;;1.63;0.60;;;;;;;;;;5032979;28;20860;-83
2022/10/15 08:57:58;;;;;;;1.38;0.50;;;;;;;;;;5033185;28;20415;-84
2022/10/15 09:00:36;;;;;;;3.25;0.60;;;;;;;;;;5032456;28;20394;-84
2022/10/15 09:03:05;;;;;;;1.25;0.60;;;;;;;;;;5033025;28;20399;-84
2022/10/15 09:05:48;;;;;;;1.40;0.60;;;;;;;;;;5033803;28;20409;-84
2022/10/15 09:08:26;;;;;;;1.40;0.70;;;;;;;;;;5033273;28;20387;-84
2022/10/15 09:10:56;;;;;;;1.40;0.50;;;;;;;;;;5033048;28;20391;-82
2022/10/15 09:13:33;;;;;;;3.20;0.70;;;;;;;;;;5033697;28;20860;-82
2022/10/15 09:16:03;;;;;;;2.50;0.70;;;;;;;;;;5030764;28;20896;-82
2022/10/15 09:18:31;;;;;;;1.50;0.63;;;;;;;;;;5038307;28;20379;-83
2022/10/15 09:20:57;;;;;;;0.90;0.50;;;;;;;;;;5032379;28;20867;-83
2022/10/15 09:23:29;;;;;;;1.55;0.55;;;;;;;;;;5031312;28;20378;-83
2022/10/15 09:26:01;;;;;;;1.30;0.70;;;;;;;;;;5030547;28;20423;-84
2022/10/15 09:28:30;;;;;;;1.80;0.70;;;;;;;;;;5031995;28;20925;-84
2022/10/15 09:30:59;;;;;;;0.68;0.50;;;;;;;;;;5032275;28;20465;-83
2022/10/15 09:33:34;;;;;;;0.60;0.50;;;;;;;;;;5041456;28;20369;-84
2022/10/15 09:36:30;;;;;;;1.63;0.60;;;;;;;;;;5038357;28;20390;-84
2022/10/15 09:39:28;;;;;;;1.08;0.60;;;;;;;;;;5030005;28;20887;-83
2022/10/15 09:42:12;;;;;;;2.95;0.70;;;;;;;;;;5015311;28;20382;-83
2022/10/15 09:44:41;;;;;;;2.42;0.60;;;;;;;;;;5035677;28;20406;-83
2022/10/15 09:47:24;;;;;;;2.40;0.77;;;;;;;;;;5035603;28;20423;-84
2022/10/15 09:49:50;;;;;;;0.95;0.50;;;;;;;;;;5024649;28;20383;-84
2022/10/15 09:52:19;;;;;;;2.05;0.70;;;;;;;;;;5035676;28;20383;-84
2022/10/15 09:54:52;;;;;;;1.13;0.55;;;;;;;;;;5035120;28;20479;-83
2022/10/15 09:57:20;;;;;;;2.33;0.73;;;;;;;;;;5035543;28;20383;-83
2022/10/15 09:59:54;;;;;;;2.40;0.90;;;;;;;;;;5035632;28;20395;-83
2022/10/15 10:02:21;;;;;;;2.45;1.13;;;;;;;;;;5038208;28;20914;-83
2022/10/15 10:04:47;;;;;;;2.25;0.90;;;;;;;;;;5038066;28;20504;-82
2022/10/15 10:07:33;;;;;;;1.60;0.95;;;;;;;;;;5035348;28;20884;-83
2022/10/15 10:10:06;;;;;;;1.05;0.80;;;;;;;;;;5039536;28;20447;-83
2022/10/15 10:12:35;;;;;;;2.60;1.17;;;;;;;;;;5039425;28;20886;-83
2022/10/15 10:15:05;;;;;;;2.70;1.10;;;;;;;;;;5038848;28;20399;-83
2022/10/15 10:17:31;;;;;;;1.92;0.90;;;;;;;;;;5033166;28;20387;-82
2022/10/15 10:20:18;;;;;;;2.10;1.08;;;;;;;;;;5041011;28;20439;-82
2022/10/15 10:22:44;;;;;;;3.63;1.30;;;;;;;;;;5032769;28;20744;-82
2022/10/15 10:25:36;;;;;;;1.70;0.87;;;;;;;;;;5034618;28;20398;-82
2022/10/15 10:28:02;;;;;;;2.10;1.00;;;;;;;;;;5033054;28;21014;-82
2022/10/15 10:30:32;;;;;;;1.50;0.85;;;;;;;;;;5034699;28;20474;-83
2022/10/15 10:33:00;;;;;;;4.80;1.15;;;;;;;;;;5034740;28;20887;-82
2022/10/15 10:35:30;;;;;;;1.38;1.00;;;;;;;;;;5034338;28;20474;-82
2022/10/15 10:37:56;;;;;;;2.10;0.70;;;;;;;;;;5034824;28;20390;-82
2022/10/15 10:40:26;;;;;;;1.58;0.80;;;;;;;;;;5034626;28;20402;-83
2022/10/15 10:43:11;;;;;;;1.02;0.60;;;;;;;;;;5034555;28;20433;-82
2022/10/15 10:45:38;;;;;;;3.50;0.65;;;;;;;;;;5032456;28;20444;-82
2022/10/15 10:48:20;;;;;;;0.88;0.80;;;;;;;;;;5034802;28;20480;-83
2022/10/15 10:50:46;;;;;;;1.67;0.77;;;;;;;;;;5037505;28;20521;-83
2022/10/15 10:53:23;;;;;;;2.65;1.00;;;;;;;;;;5038605;28;20391;-82
2022/10/15 10:55:50;;;;;;;2.00;0.98;;;;;;;;;;5033193;28;20414;-82
2022/10/15 10:58:21;;;;;;;1.58;0.90;;;;;;;;;;5032106;28;20741;-82
2022/10/15 11:00:48;;;;;;;1.77;1.00;;;;;;;;;;5032390;28;20772;-82
2022/10/15 11:03:14;;;;;;;1.92;0.90;;;;;;;;;;5031881;28;20490;-82
2022/10/15 11:05:41;;;;;;;2.30;0.90;;;;;;;;;;5033467;28;20410;-82
2022/10/15 11:08:30;;;;;;;1.85;1.10;;;;;;;;;;5031030;28;20422;-82
2022/10/15 11:10:56;;;;;;;1.67;0.80;;;;;;;;;;5031439;28;20382;-81
2022/10/15 11:13:40;;;;;;;2.80;1.10;;;;;;;;;;5032971;28;20379;-81
2022/10/15 11:16:29;;;;;;;3.03;0.87;;;;;;;;;;5032780;28;20440;-81
2022/10/15 11:18:58;;;;;;;2.50;0.70;;;;;;;;;;5032875;28;20387;-82
2022/10/15 11:21:24;;;;;;;1.40;1.00;;;;;;;;;;5032996;28;20385;-82
2022/10/15 11:24:09;;;;;;;1.83;0.52;;;;;;;;;;5033843;28;20497;-82
2022/10/15 11:26:53;;;;;;;1.90;0.80;;;;;;;;;;5032214;28;20390;-83
2022/10/15 11:29:19;;;;;;;6.43;0.80;;;;;;;;;;5023310;28;20414;-82
2022/10/15 11:31:51;;;;;;;3.40;0.90;;;;;;;;;;5031027;28;20387;-82
2022/10/15 11:34:23;;;;;;;1.17;0.95;;;;;;;;;;5016600;28;20420;-82
2022/10/15 11:36:49;;;;;;;1.77;1.00;;;;;;;;;;5022261;28;20395;-83
2022/10/15 11:39:34;;;;;;;1.70;0.98;;;;;;;;;;5024851;28;20375;-81
2022/10/15 11:42:12;;;;;;;2.50;1.00;;;;;;;;;;5033076;28;20401;-82
2022/10/15 11:44:57;;;;;;;3.40;1.10;;;;;;;;;;5033556;28;20413;-82
2022/10/15 11:47:42;;;;;;;1.70;0.90;;;;;;;;;;5031212;28;20379;-82
2022/10/15 11:50:10;;;;;;;2.03;1.10;;;;;;;;;;5027692;28;20426;-81
2022/10/15 11:52:46;;;;;;;3.20;1.55;;;;;;;;;;5025000;28;20442;-82
2022/10/15 11:55:15;;;;;;;1.20;0.80;;;;;;;;;;5024494;28;21004;-83
2022/10/15 11:57:43;;;;;;;2.55;1.00;;;;;;;;;;5032023;28;20379;-83
2022/10/15 12:00:27;;;;;;;2.40;0.90;;;;;;;;;;5029842;28;20479;-83
2022/10/15 12:02:54;;;;;;;1.50;1.15;;;;;;;;;;5031791;28;20486;-83
2022/10/15 12:05:31;;;;;;;1.30;0.75;;;;;;;;;;5032986;28;20403;-83
2022/10/15 12:07:58;;;;;;;4.97;0.90;;;;;;;;;;5032975;28;20429;-83
2022/10/15 12:10:42;;;;;;;1.77;0.88;;;;;;;;;;5032979;28;20379;-83
2022/10/15 12:13:14;;;;;;;1.17;0.70;;;;;;;;;;5032603;28;20776;-83
2022/10/15 12:16:00;;;;;;;1.73;0.70;;;;;;;;;;5033037;28;20445;-83
2022/10/15 12:18:39;;;;;;;2.90;1.00;;;;;;;;;;5032741;28;20391;-83
2022/10/15 12:21:25;;;;;;;3.50;0.85;;;;;;;;;;5031637;28;20387;-83
2022/10/15 12:23:51;;;;;;;0.98;0.65;;;;;;;;;;5031120;28;20783;-83
2022/10/15 12:26:37;;;;;;;1.50;0.70;;;;;;;;;;5032677;28;20473;-83
2022/10/15 12:29:04;;;;;;;1.77;0.80;;;;;;;;;;5032789;28;20457;-83
2022/10/15 12:31:43;;;;;;;1.10;0.68;;;;;;;;;;5032693;28;20414;-84
2022/10/15 12:34:24;;;;;;;4.32;0.77;;;;;;;;;;5032567;28;20415;-83
2022/10/15 12:36:59;;;;;;;2.35;0.80;;;;;;;;;;5032562;28;20391;-83
2022/10/15 12:39:25;;;;;;;2.80;0.55;;;;;;;;;;5032540;28;20856;-83
2022/10/15 12:41:51;;;;;;;2.10;0.50;;;;;;;;;;5032411;28;20394;-83
2022/10/15 12:44:31;;;;;;;2.33;0.70;;;;;;;;;;5032329;28;20418;-84
2022/10/15 12:46:57;;;;;;;3.30;0.70;;;;;;;;;;5032217;28;20390;-83
2022/10/15 12:49:29;;;;;;;2.10;0.70;;;;;;;;;;5032489;28;20403;-83
2022/10/15 12:51:56;;;;;;;1.85;0.70;;;;;;;;;;5019723;28;20380;-83
2022/10/15 12:54:33;;;;;;;1.05;0.70;;;;;;;;;;5018617;28;20387;-83
2022/10/15 12:56:59;;;;;;;2.20;0.70;;;;;;;;;;5032363;28;20379;-83
2022/10/15 12:59:32;;;;;;;2.33;0.90;;;;;;;;;;5032160;28;20422;-83
2022/10/15 13:01:58;;;;;;;2.30;0.70;;;;;;;;;;5032124;28;20453;-83
2022/10/15 13:04:36;;;;;;;1.85;0.70;;;;;;;;;;5032084;28;20514;-83
2022/10/15 13:07:03;;;;;;;1.80;0.73;;;;;;;;;;5030911;28;20390;-83
2022/10/15 13:09:29;;;;;;;2.85;0.90;;;;;;;;;;5032580;28;20868;-83
2022/10/15 13:11:56;;;;;;;2.20;0.70;;;;;;;;;;5036281;28;20398;-83
2022/10/15 13:14:41;;;;;;;1.95;0.90;;;;;;;;;;5036143;28;20379;-83
2022/10/15 13:17:15;;;;;;;2.25;0.80;;;;;;;;;;5036205;28;20880;-84
2022/10/15 13:19:46;;;;;;;3.28;0.90;;;;;;;;;;5036127;28;20393;-83
2022/10/15 13:22:23;;;;;;;0.80;0.80;;;;;;;;;;5036058;28;20483;-83
2022/10/15 13:24:49;;;;;;;2.35;0.80;;;;;;;;;;5035972;28;20406;-83
2022/10/15 13:27:20;;;;;;;1.60;0.63;;;;;;;;;;5033290;28;20765;-83
2022/10/15 13:30:00;;;;;;;1.55;0.88;;;;;;;;;;5035998;28;20517;-83
2022/10/15 13:32:27;;;;;;;2.27;0.70;;;;;;;;;;5035722;28;20379;-83
2022/10/15 13:34:54;;;;;;;1.30;0.80;;;;;;;;;;5036029;28;20383;-83
2022/10/15 13:37:24;;;;;;;3.67;1.20;;;;;;;;;;5035857;28;20785;-83
2022/10/15 13:39:51;;;;;;;1.70;1.10;;;;;;;;;;5036193;28;20557;-83
2022/10/15 13:42:21;;;;;;;1.92;0.80;;;;;;;;;;5035678;28;20447;-83
2022/10/15 13:44:56;;;;;;;3.37;1.10;;;;;;;;;;5035766;28;21011;-83
2022/10/15 13:47:27;;;;;;;3.08;1.10;;;;;;;;;;5045895;28;20371;-83
2022/10/15 13:50:12;;;;;;;4.10;0.90;;;;;;;;;;5035568;28;20428;-83
2022/10/15 13:52:40;;;;;;;1.45;0.93;;;;;;;;;;5032604;28;20383;-83
2022/10/15 13:55:15;;;;;;;3.03;1.00;;;;;;;;;;5035424;28;20394;-83
2022/10/15 13:57:44;;;;;;;5.93;1.00;;;;;;;;;;5035523;28;20402;-83
2022/10/15 14:00:19;;;;;;;2.70;1.00;;;;;;;;;;5035210;28;20387;-83
2022/10/15 14:02:45;;;;;;;3.47;1.45;;;;;;;;;;5035061;28;20521;-83
2022/10/15 14:05:15;;;;;;;1.92;1.17;;;;;;;;;;5035370;28;20501;-83
2022/10/15 14:07:41;;;;;;;1.95;0.90;;;;;;;;;;5033947;28;20903;-83
2022/10/15 14:10:08;;;;;;;2.25;1.00;;;;;;;;;;5035205;28;20395;-83
2022/10/15 14:12:34;;;;;;;2.27;0.90;;;;;;;;;;5035109;28;20469;-83
2022/10/15 14:15:20;;;;;;;2.33;0.98;;;;;;;;;;5035495;28;20422;-83
2022/10/15 14:17:49;;;;;;;6.97;6.28;;;;;;;;;;5035251;28;20390;-83
2022/10/15 14:20:16;;;;;;;2.05;1.55;;;;;;;;;;5034141;28;20390;-83
2022/10/15 14:22:42;;;;;;;1.80;0.90;;;;;;;;;;5034969;28;20386;-83
2022/10/15 14:25:09;;;;;;;2.28;1.20;;;;;;;;;;5034902;28;20906;-83
2022/10/15 14:27:36;;;;;;;3.72;1.30;;;;;;;;;;5034978;28;20398;-83
2022/10/15 14:30:02;;;;;;;3.47;1.50;;;;;;;;;;5034307;28;20427;-83
2022/10/15 14:32:28;;;;;;;2.10;1.30;;;;;;;;;;5034752;28;20887;-83
2022/10/15 14:34:55;;;;;;;2.30;1.30;;;;;;;;;;5034497;28;20395;-84
2022/10/15 14:37:28;;;;;;;4.82;1.38;;;;;;;;;;5034902;28;20402;-83
2022/10/15 14:40:03;;;;;;;3.38;1.48;;;;;;;;;;5035041;28;20383;-83
2022/10/15 14:42:31;;;;;;;2.05;1.45;;;;;;;;;;5033549;28;20398;-83
2022/10/15 14:45:16;;;;;;;1.70;1.30;;;;;;;;;;5031686;28;20421;-83
2022/10/15 14:47:45;;;;;;;3.50;1.38;;;;;;;;;;5016517;28;20380;-84
2022/10/15 14:50:11;;;;;;;2.50;1.48;;;;;;;;;;5042944;28;20400;-84
2022/10/15 14:52:42;;;;;;;1.45;1.10;;;;;;;;;;5028439;28;20762;-83
2022/10/15 14:55:31;;;;;;;2.03;1.42;;;;;;;;;;5028140;28;20847;-83
2022/10/15 14:57:57;;;;;;;1.77;1.10;;;;;;;;;;5027435;28;20395;-84
2022/10/15 15:00:25;;;;;;;4.53;2.20;;;;;;;;;;5033202;28;20391;-84
2022/10/15 15:02:53;;;;;;;3.25;1.30;;;;;;;;;;5034168;28;20387;-84
2022/10/15 15:05:21;;;;;;;1.65;1.10;;;;;;;;;;5034041;28;20406;-84
2022/10/15 15:07:47;;;;;;;1.92;1.20;;;;;;;;;;5034076;28;20384;-84
2022/10/15 15:10:14;;;;;;;1.65;1.13;;;;;;;;;;5033923;28;20411;-86
2022/10/15 15:12:41;;;;;;;2.38;1.20;;;;;;;;;;5034003;28;20383;-87
2022/10/15 15:15:15;;;;;;;3.55;1.40;;;;;;;;;;5034044;28;20418;-88
2022/10/15 15:17:40;;;;;;;2.17;1.38;;;;;;;;;;5027470;28;20382;-86
2022/10/15 15:20:07;;;;;;;1.65;1.30;;;;;;;;;;5020820;28;20385;-88
2022/10/15 15:22:34;;;;;;;2.75;1.30;;;;;;;;;;5014643;28;20424;-84
2022/10/15 15:25:02;;;;;;;3.00;1.40;;;;;;;;;;5013070;28;20407;-85
2022/10/15 15:27:29;;;;;;;2.10;1.35;;;;;;;;;;5032083;28;20873;-86
2022/10/15 15:29:56;;;;;;;2.28;1.40;;;;;;;;;;5024973;28;20383;-87
2022/10/15 15:32:23;;;;;;;2.05;1.30;;;;;;;;;;5019016;28;20808;-87
2022/10/15 15:34:50;;;;;;;2.42;1.60;;;;;;;;;;5017474;28;20881;-86
2022/10/15 15:37:18;;;;;;;4.75;3.13;;;;;;;;;;5024654;28;20379;-86
2022/10/15 15:39:44;;;;;;;3.45;2.22;;;;;;;;;;5025538;28;20418;-86
2022/10/15 15:42:11;;;;;;;2.28;2.00;;;;;;;;;;5030723;28;20391;-87
2022/10/15 15:44:38;;;;;;;4.28;2.05;;;;;;;;;;5028288;28;20480;-90
2022/10/15 15:47:07;;;;;;;4.37;1.97;;;;;;;;;;5042726;22;20527;-88
2022/10/15 15:49:45;;;;;;;3.13;1.63;;;;;;;;;;5028705;28;20506;-91
2022/10/15 15:52:17;;;;;;;2.88;1.45;;;;;;;;;;5024261;28;20476;-91
2022/10/15 15:55:51;;;;;;;2.05;1.60;;;;;;;;;;5033361;28;20426;-93
2022/10/15 16:01:10;;;;;;;2.53;1.55;;;;;;;;;;4982801;28;20346;-92
2022/10/15 16:04:36;;;;;;;2.35;1.40;;;;;;;;;;4964960;28;20420;-93
2022/10/15 16:07:34;;;;;;;1.50;1.30;;;;;;;;;;4987439;28;20382;-95
2022/10/15 16:12:45;;;;;;;2.53;1.10;;;;;;;;;;5980344;22;20444;-93
2022/10/15 16:18:41;;;;;;;2.03;1.30;;;;;;;;;;5062443;28;20379;-92
2022/10/15 16:21:50;;;;;;;1.35;1.00;;;;;;;;;;5004937;28;20387;-92
2022/10/15 16:27:34;;;;;;;0.83;0.80;;;;;;;;;;5354850;22;20454;-91
2022/10/15 16:30:38;;;;;;;3.13;1.42;;;;;;;;;;5041843;28;20385;-94
2022/10/15 16:33:37;;;;;;;1.70;1.60;;;;;;;;;;5007233;28;20871;-92
2022/10/15 16:39:24;;;;;;;4.15;2.33;;;;;;;;;;5046393;28;20388;-92
2022/10/15 16:41:50;;;;;;;3.90;1.90;;;;;;;;;;5032304;28;20379;-90
2022/10/15 16:44:16;;;;;;;3.03;1.42;;;;;;;;;;5030250;28;20437;-89
2022/10/15 16:46:43;;;;;;;2.00;1.20;;;;;;;;;;5009190;28;20445;-91
2022/10/15 16:49:33;;;;;;;2.60;1.35;;;;;;;;;;5030269;28;20752;-91
2022/10/15 16:51:59;;;;;;;3.20;1.27;;;;;;;;;;5021776;28;20474;-90
2022/10/15 16:54:28;;;;;;;3.20;1.45;;;;;;;;;;5032653;28;20399;-90
2022/10/15 16:57:03;;;;;;;2.75;1.20;;;;;;;;;;5030700;28;20379;-93
2022/10/15 16:59:29;;;;;;;4.82;1.20;;;;;;;;;;5031516;28;20379;-89
2022/10/15 17:02:00;;;;;;;2.67;1.30;;;;;;;;;;5032309;28;20745;-90
2022/10/15 17:04:26;;;;;;;2.75;1.40;;;;;;;;;;5031544;28;20387;-93
2022/10/15 17:06:51;;;;;;;2.33;1.48;;;;;;;;;;5031083;28;20422;-92
2022/10/15 17:09:17;;;;;;;2.45;1.90;;;;;;;;;;5032346;28;20846;-95
2022/10/15 17:11:45;;;;;;;3.17;1.52;;;;;;;;;;5011616;28;20431;-89
2022/10/15 17:14:13;;;;;;;4.65;1.77;;;;;;;;;;5031866;28;20415;-88
2022/10/15 17:16:42;;;;;;;5.32;1.70;;;;;;;;;;5031828;28;20383;-88
2022/10/15 17:19:08;;;;;;;3.22;1.63;;;;;;;;;;5014435;28;20379;-90
2022/10/15 17:21:35;;;;;;;4.38;1.48;;;;;;;;;;5031973;28;20891;-87
2022/10/15 17:24:02;;;;;;;4.45;1.20;;;;;;;;;;5031993;28;20469;-89
2022/10/15 17:26:32;;;;;;;3.58;1.45;;;;;;;;;;5032096;28;20379;-89
2022/10/15 17:28:58;;;;;;;3.00;1.20;;;;;;;;;;5029049;28;20952;-90
2022/10/15 17:31:25;;;;;;;7.00;1.58;;;;;;;;;;5030743;28;20386;-87
2022/10/15 17:33:56;;;;;;;4.72;1.42;;;;;;;;;;5030326;28;20449;-89
2022/10/15 17:36:23;;;;;;;3.58;1.60;;;;;;;;;;5024284;28;20383;-86
2022/10/15 17:38:49;;;;;;;6.75;1.45;;;;;;;;;;5026233;28;20397;-87
2022/10/15 17:41:19;;;;;;;4.20;1.70;;;;;;;;;;5010584;28;20392;-89
2022/10/15 17:43:45;;;;;;;11.50;10.50;;;;;;;;;;5029210;28;20406;-87
2022/10/15 17:46:13;;;;;;;18.58;17.08;;;;;;;;;;5031698;28;20375;-89
2022/10/15 17:48:39;;;;;;;16.05;14.70;;;;;;;;;;5031218;28;20375;-85
2022/10/15 17:51:10;;;;;;;12.10;10.95;;;;;;;;;;5031767;28;20375;-86
2022/10/15 17:53:36;;;;;;;9.50;8.60;;;;;;;;;;5030425;28;20379;-88
2022/10/15 17:56:13;;;;;;;5.95;3.03;;;;;;;;;;5031631;28;20407;-88
2022/10/15 17:58:39;;;;;;;4.55;1.83;;;;;;;;;;5038685;28;20728;-90
2022/10/15 18:01:06;;;;;;;4.80;1.80;;;;;;;;;;5022906;28;20434;-88
2022/10/15 18:03:32;;;;;;;7.22;2.05;;;;;;;;;;5035488;28;20390;-88
2022/10/15 18:05:58;;;;;;;3.33;1.75;;;;;;;;;;5034434;28;20883;-88
2022/10/15 18:08:24;;;;;;;4.85;3.00;;;;;;;;;;5035151;28;20389;-88
2022/10/15 18:10:51;;;;;;;4.07;2.10;;;;;;;;;;5035114;28;20726;-90
2022/10/15 18:13:17;;;;;;;18.75;13.63;;;;;;;;;;5035490;28;20740;-92
2022/10/15 18:15:47;;;;;;;39.38;30.23;;;;;;;;;;5027597;28;20415;-89
2022/10/15 18:18:14;;;;;;;59.30;42.85;;;;;;;;;;5016478;28;20409;-91
2022/10/15 18:20:40;;;;;;;38.83;26.63;;;;;;;;;;5015154;28;20385;-90
2022/10/15 18:23:06;;;;;;;40.65;30.00;;;;;;;;;;5018667;28;20821;-90
2022/10/15 18:25:32;;;;;;;37.50;26.17;;;;;;;;;;5019613;28;20393;-90
2022/10/15 18:27:58;;;;;;;30.95;21.95;;;;;;;;;;5030046;28;20399;-90
2022/10/15 18:30:25;;;;;;;18.10;11.90;;;;;;;;;;5015948;28;20474;-90
2022/10/15 18:32:51;;;;;;;15.65;8.20;;;;;;;;;;5028986;28;20421;-89
2022/10/15 18:35:17;;;;;;;8.70;6.35;;;;;;;;;;5032686;28;21715;-89
2022/10/15 18:37:43;;;;;;;6.25;4.65;;;;;;;;;;5033763;28;20389;-92
2022/10/15 18:40:09;;;;;;;18.90;4.70;;;;;;;;;;5032087;28;20398;-92
2022/10/15 18:42:36;;;;;;;7.30;4.22;;;;;;;;;;5022654;28;20436;-92
2022/10/15 18:45:02;;;;;;;6.47;3.75;;;;;;;;;;5023823;28;20398;-92
2022/10/15 18:47:28;;;;;;;10.13;3.45;;;;;;;;;;5002334;28;20401;-90
2022/10/15 18:49:54;;;;;;;5.20;3.15;;;;;;;;;;5027264;28;20383;-89
2022/10/15 18:52:20;;;;;;;7.60;3.35;;;;;;;;;;5026164;28;20390;-90
2022/10/15 18:54:46;;;;;;;7.57;3.47;;;;;;;;;;5027769;28;20759;-91
2022/10/15 18:57:12;;;;;;;6.60;4.28;;;;;;;;;;5027181;28;20391;-91
2022/10/15 18:59:38;;;;;;;7.22;3.63;;;;;;;;;;5023697;28;20428;-90
2022/10/15 19:02:04;;;;;;;4.35;3.15;;;;;;;;;;5035332;28;20390;-92
2022/10/15 19:04:30;;;;;;;5.70;3.03;;;;;;;;;;5035188;28;20394;-92
2022/10/15 19:10:10;;;;;;;7.40;3.55;;;;;;;;;;4732495;26;21015;-93
2022/10/15 19:12:36;;;;;;;6.22;4.47;;;;;;;;;;4943756;28;20385;-90
2022/10/15 19:15:08;;;;;;;6.20;5.25;;;;;;;;;;4967397;28;20418;-91
2022/10/15 19:17:37;;;;;;;7.78;5.28;;;;;;;;;;5051870;28;20388;-89
2022/10/15 19:20:16;;;;;;;6.65;4.88;;;;;;;;;;5052079;28;20409;-90